Time;durP1;ratioP1;P1;durP2;ratioP2;P2;SDS_P1;SDS_P2;PMS_P1;PMS_P2;Temp;Humidity;BMP_temperature;BMP_pressure;BME280_temperature;BME280_humidity;BME280_pressure;Samples;Min_cycle;Max_cycle;Signal;HPM_P1;HPM_P2
2023/04/11 00:01:23;;;;;;;5.50;1.92;;;9.70;99.90;;;;;;5099685;28;20048;-73
2023/04/11 00:03:49;;;;;;;8.90;2.05;;;9.80;99.90;;;;;;5098805;28;20078;-73
2023/04/11 00:06:15;;;;;;;6.82;1.65;;;9.80;99.90;;;;;;5100063;28;20063;-73
2023/04/11 00:08:43;;;;;;;6.07;1.67;;;9.90;99.90;;;;;;5099770;28;20067;-73
2023/04/11 00:11:08;;;;;;;9.45;1.92;;;9.90;99.90;;;;;;5099968;28;20066;-73
2023/04/11 00:13:36;;;;;;;8.32;1.90;;;9.80;99.90;;;;;;5098666;28;20429;-73
2023/04/11 00:16:02;;;;;;;12.20;2.05;;;9.70;99.90;;;;;;5099539;28;20052;-73
2023/04/11 00:18:28;;;;;;;13.38;1.92;;;9.60;99.90;;;;;;5099433;28;20046;-73
2023/04/11 00:20:53;;;;;;;8.13;1.63;;;9.70;99.90;;;;;;5098852;28;20036;-73
2023/04/11 00:23:19;;;;;;;11.20;2.15;;;9.60;99.90;;;;;;5098492;28;20421;-73
2023/04/11 00:25:45;;;;;;;11.48;2.30;;;9.70;99.90;;;;;;5099373;28;20046;-73
2023/04/11 00:28:10;;;;;;;12.38;2.20;;;9.70;99.90;;;;;;5099337;28;20089;-73
2023/04/11 00:30:37;;;;;;;12.30;2.47;;;9.70;99.90;;;;;;5099368;28;20089;-73
2023/04/11 00:33:03;;;;;;;11.20;2.60;;;9.60;99.90;;;;;;5099521;28;20096;-73
2023/04/11 00:35:29;;;;;;;11.30;2.67;;;9.50;99.90;;;;;;5098846;28;20379;-73
2023/04/11 00:37:57;;;;;;;11.93;2.50;;;9.60;99.90;;;;;;5099175;28;20036;-73
2023/04/11 00:40:23;;;;;;;17.73;2.70;;;9.70;99.90;;;;;;5099354;28;20036;-73
2023/04/11 00:42:48;;;;;;;14.25;2.83;;;9.40;99.90;;;;;;5099427;28;20043;-73
2023/04/11 00:45:14;;;;;;;22.90;3.05;;;9.20;99.90;;;;;;5098076;28;20325;-73
2023/04/11 00:47:40;;;;;;;15.77;2.67;;;9.00;99.90;;;;;;5098946;28;20046;-73
2023/04/11 00:50:07;;;;;;;19.17;2.97;;;9.00;99.90;;;;;;5099266;28;20136;-73
2023/04/11 00:52:35;;;;;;;19.38;3.38;;;8.90;99.90;;;;;;5099252;28;20435;-73
2023/04/11 00:55:02;;;;;;;20.50;3.13;;;8.90;99.90;;;;;;5080961;28;20047;-73
2023/04/11 00:57:29;;;;;;;19.50;3.78;;;8.80;99.90;;;;;;5099196;28;20076;-73
2023/04/11 00:59:57;;;;;;;13.93;2.60;;;8.80;99.90;;;;;;5098767;28;20129;-73
2023/04/11 01:02:23;;;;;;;17.77;3.00;;;8.80;99.90;;;;;;5081337;28;20044;-74
2023/04/11 01:04:50;;;;;;;19.00;2.67;;;8.70;99.90;;;;;;5098958;28;20051;-73
2023/04/11 01:07:17;;;;;;;18.55;2.70;;;8.60;99.90;;;;;;5098918;28;20038;-74
2023/04/11 01:09:44;;;;;;;16.15;2.97;;;8.60;99.90;;;;;;5098195;28;20097;-74
2023/04/11 01:12:10;;;;;;;14.57;2.63;;;8.60;99.90;;;;;;5098808;28;20086;-74
2023/04/11 01:14:36;;;;;;;18.05;2.50;;;8.60;99.90;;;;;;5098612;28;20053;-73
2023/04/11 01:17:02;;;;;;;19.27;2.50;;;8.50;99.90;;;;;;5098489;28;20149;-73
2023/04/11 01:19:28;;;;;;;12.13;2.03;;;8.40;99.90;;;;;;5098194;28;20032;-73
2023/04/11 01:21:56;;;;;;;18.55;3.53;;;8.40;99.90;;;;;;5098637;28;20106;-74
2023/04/11 01:24:22;;;;;;;19.05;2.90;;;8.30;99.90;;;;;;5098294;28;20471;-74
2023/04/11 01:26:48;;;;;;;20.10;3.03;;;8.30;99.90;;;;;;5098587;28;20044;-74
2023/04/11 01:29:13;;;;;;;21.98;2.72;;;8.30;99.90;;;;;;5098487;28;20169;-74
2023/04/11 01:31:39;;;;;;;18.85;2.70;;;8.30;99.90;;;;;;5097373;28;20645;-74
2023/04/11 01:34:06;;;;;;;16.45;2.70;;;8.30;99.90;;;;;;5080240;28;20055;-74
2023/04/11 01:36:32;;;;;;;16.65;2.53;;;8.30;99.90;;;;;;5098150;28;20043;-74
2023/04/11 01:38:57;;;;;;;16.70;2.88;;;8.40;99.90;;;;;;5098288;28;20039;-74
2023/04/11 01:41:29;;;;;;;16.08;2.58;;;8.40;99.90;;;;;;5096874;28;20166;-74
2023/04/11 01:43:56;;;;;;;19.45;3.15;;;8.40;99.90;;;;;;5098201;28;20040;-74
2023/04/11 01:46:22;;;;;;;19.27;3.30;;;8.30;99.90;;;;;;5096834;28;20440;-74
2023/04/11 01:48:55;;;;;;;18.02;3.08;;;8.40;99.90;;;;;;5097418;28;20047;-74
2023/04/11 01:51:20;;;;;;;17.15;2.92;;;8.60;99.90;;;;;;5098097;28;20040;-74
2023/04/11 01:53:46;;;;;;;15.15;2.70;;;8.70;99.90;;;;;;5098038;28;20055;-74
2023/04/11 01:56:14;;;;;;;20.50;2.80;;;8.70;99.90;;;;;;5098220;28;20368;-74
2023/04/11 01:58:40;;;;;;;15.15;3.08;;;8.60;99.90;;;;;;5097946;28;20374;-74
2023/04/11 02:01:06;;;;;;;19.05;2.45;;;8.50;99.90;;;;;;5097417;28;20128;-74
2023/04/11 02:03:32;;;;;;;11.40;2.17;;;8.40;99.90;;;;;;5097515;28;20028;-74
2023/04/11 02:05:58;;;;;;;13.68;1.80;;;8.30;99.90;;;;;;5097819;28;20032;-74
2023/04/11 02:08:24;;;;;;;9.48;1.60;;;8.20;99.90;;;;;;5097724;28;20036;-74
2023/04/11 02:10:49;;;;;;;10.63;1.83;;;8.30;99.90;;;;;;5097702;28;20048;-74
2023/04/11 02:13:15;;;;;;;7.65;1.42;;;8.30;99.90;;;;;;5097658;28;20044;-74
2023/04/11 02:15:41;;;;;;;6.10;1.17;;;8.20;99.90;;;;;;5097289;28;20372;-74
2023/04/11 02:18:08;;;;;;;7.55;1.50;;;8.20;99.90;;;;;;5096165;28;20097;-74
2023/04/11 02:20:36;;;;;;;5.55;1.08;;;8.20;99.90;;;;;;5097468;28;20052;-74
2023/04/11 02:23:03;;;;;;;7.45;1.05;;;8.20;99.90;;;;;;5097487;28;20376;-74
2023/04/11 02:25:29;;;;;;;8.13;1.20;;;8.20;99.90;;;;;;5097329;28;20047;-74
2023/04/11 02:27:55;;;;;;;4.50;1.20;;;8.20;99.90;;;;;;5097425;28;20040;-74
2023/04/11 02:30:21;;;;;;;7.35;1.48;;;8.20;99.90;;;;;;5097392;28;20047;-74
2023/04/11 02:32:48;;;;;;;7.28;1.27;;;8.20;99.90;;;;;;5097349;28;20325;-74
2023/04/11 02:35:15;;;;;;;6.35;1.60;;;8.10;99.90;;;;;;5097304;28;20048;-74
2023/04/11 02:37:41;;;;;;;7.30;1.48;;;8.10;99.90;;;;;;5097011;28;20053;-74
2023/04/11 02:40:08;;;;;;;4.22;1.27;;;8.10;99.90;;;;;;5097417;28;20367;-74
2023/04/11 02:42:34;;;;;;;8.00;1.50;;;8.20;99.90;;;;;;5096085;28;20433;-74
2023/04/11 02:45:00;;;;;;;6.63;1.40;;;8.20;99.90;;;;;;5097190;28;20040;-74
2023/04/11 02:47:35;;;;;;;9.60;1.70;;;8.30;99.90;;;;;;5096443;28;20040;-74
2023/04/11 02:50:00;;;;;;;3.60;1.40;;;8.40;99.90;;;;;;5097195;28;20048;-74
2023/04/11 02:52:26;;;;;;;8.73;1.85;;;8.30;99.90;;;;;;5096001;28;20044;-73
2023/04/11 02:54:51;;;;;;;9.18;2.10;;;8.40;99.90;;;;;;5097027;28;20432;-74
2023/04/11 02:57:17;;;;;;;9.25;2.33;;;8.50;99.90;;;;;;5096674;28;20436;-74
2023/04/11 02:59:43;;;;;;;12.88;2.15;;;8.50;99.90;;;;;;5096742;28;20392;-74
2023/04/11 03:02:09;;;;;;;5.68;1.80;;;8.50;99.90;;;;;;5096978;28;20052;-74
2023/04/11 03:04:34;;;;;;;13.20;2.47;;;8.40;99.90;;;;;;5096932;28;20119;-74
2023/04/11 03:07:00;;;;;;;12.45;2.40;;;8.40;99.90;;;;;;5096836;28;20119;-74
2023/04/11 03:09:26;;;;;;;10.02;2.20;;;8.60;99.90;;;;;;5096871;28;20036;-74
2023/04/11 03:11:51;;;;;;;8.07;2.08;;;8.50;99.90;;;;;;5096900;28;20055;-74
2023/04/11 03:14:17;;;;;;;7.13;1.80;;;8.40;99.90;;;;;;5096820;28;20414;-74
2023/04/11 03:16:43;;;;;;;7.60;2.25;;;8.50;99.90;;;;;;5096497;28;20047;-74
2023/04/11 03:19:08;;;;;;;10.60;2.28;;;8.50;99.90;;;;;;5096135;28;20040;-74
2023/04/11 03:21:34;;;;;;;9.40;2.17;;;8.30;99.90;;;;;;5096676;28;20032;-74
2023/04/11 03:24:00;;;;;;;8.05;2.10;;;8.30;99.90;;;;;;5096435;28;20040;-74
2023/04/11 03:26:26;;;;;;;10.98;2.85;;;8.40;99.90;;;;;;5096697;28;20036;-74
2023/04/11 03:28:55;;;;;;;10.35;2.08;;;8.30;99.90;;;;;;5095632;28;20070;-74
2023/04/11 03:31:21;;;;;;;5.93;1.92;;;8.30;99.90;;;;;;5096686;28;20080;-74
2023/04/11 03:33:46;;;;;;;7.22;2.08;;;8.30;99.90;;;;;;5096665;28;20109;-74
2023/04/11 03:36:12;;;;;;;12.45;2.55;;;8.40;99.90;;;;;;5096581;28;20040;-74
2023/04/11 03:38:38;;;;;;;8.77;2.38;;;8.40;99.90;;;;;;5096659;28;20040;-74
2023/04/11 03:41:04;;;;;;;10.52;2.40;;;8.40;99.90;;;;;;5096483;28;20413;-73
2023/04/11 03:43:30;;;;;;;13.10;2.53;;;8.40;99.90;;;;;;5096581;28;20058;-74
2023/04/11 03:45:56;;;;;;;14.77;2.88;;;8.40;99.90;;;;;;5096572;28;20032;-74
2023/04/11 03:48:25;;;;;;;10.05;2.17;;;8.30;99.90;;;;;;5095790;28;20081;-74
2023/04/11 03:50:51;;;;;;;6.65;2.55;;;8.30;99.90;;;;;;5096498;28;20052;-75
2023/04/11 03:53:17;;;;;;;12.38;2.67;;;8.30;99.90;;;;;;5089906;28;20072;-75
2023/04/11 03:55:43;;;;;;;10.20;2.63;;;8.30;99.90;;;;;;5094403;28;20370;-74
2023/04/11 03:58:08;;;;;;;11.45;2.42;;;8.30;99.90;;;;;;5096313;28;20036;-74
2023/04/11 04:00:35;;;;;;;11.68;2.95;;;8.40;99.90;;;;;;5095765;28;20048;-74
2023/04/11 04:03:00;;;;;;;8.50;2.30;;;8.30;99.90;;;;;;5096066;28;20054;-74
2023/04/11 04:05:26;;;;;;;10.45;2.75;;;8.40;99.90;;;;;;5096351;28;20040;-73
2023/04/11 04:07:52;;;;;;;11.55;2.65;;;8.30;99.90;;;;;;5096323;28;20330;-74
2023/04/11 04:10:18;;;;;;;16.20;2.97;;;8.40;99.90;;;;;;5098388;28;20395;-74
2023/04/11 04:12:43;;;;;;;12.80;2.92;;;8.40;99.90;;;;;;5099927;28;20043;-74
2023/04/11 04:15:10;;;;;;;12.85;2.95;;;8.40;99.90;;;;;;5099913;28;20345;-74
2023/04/11 04:17:35;;;;;;;14.80;3.30;;;8.40;99.90;;;;;;5099488;28;20036;-74
2023/04/11 04:20:03;;;;;;;11.70;2.92;;;8.40;99.90;;;;;;5099412;28;20386;-74
2023/04/11 04:22:29;;;;;;;15.23;3.40;;;8.40;99.90;;;;;;5099514;28;20414;-74
2023/04/11 04:24:56;;;;;;;10.13;2.83;;;8.50;99.90;;;;;;5099788;28;20059;-74
2023/04/11 04:27:23;;;;;;;17.88;3.33;;;8.40;99.90;;;;;;5099453;28;20474;-74
2023/04/11 04:29:50;;;;;;;19.85;4.18;;;8.30;99.90;;;;;;5099708;28;20378;-74
2023/04/11 04:32:21;;;;;;;13.50;3.30;;;8.40;99.90;;;;;;5099649;28;20375;-74
2023/04/11 04:34:49;;;;;;;19.25;3.47;;;8.30;99.90;;;;;;5098278;28;20051;-74
2023/04/11 04:37:24;;;;;;;14.15;3.30;;;8.30;99.90;;;;;;5099582;28;20127;-74
2023/04/11 04:39:54;;;;;;;14.37;3.67;;;8.40;99.90;;;;;;5099464;28;20044;-74
2023/04/11 04:42:24;;;;;;;18.40;4.00;;;8.40;99.90;;;;;;5099413;28;20070;-74
2023/04/11 04:44:51;;;;;;;18.48;4.03;;;8.30;99.90;;;;;;5099383;28;20057;-74
2023/04/11 04:47:17;;;;;;;15.40;3.28;;;8.30;99.90;;;;;;5099326;28;20024;-73
2023/04/11 04:49:43;;;;;;;12.55;3.28;;;8.20;99.90;;;;;;5098924;28;20036;-74
2023/04/11 04:52:10;;;;;;;15.43;3.40;;;8.20;99.90;;;;;;5099163;28;20036;-73
2023/04/11 04:54:35;;;;;;;13.70;3.35;;;8.20;99.90;;;;;;5098886;28;20121;-74
2023/04/11 04:57:01;;;;;;;13.52;3.60;;;8.30;99.90;;;;;;5099083;28;20072;-74
2023/04/11 04:59:27;;;;;;;11.10;3.40;;;8.30;99.90;;;;;;5098872;28;20045;-72
2023/04/11 05:01:53;;;;;;;12.77;3.55;;;8.40;99.90;;;;;;5099069;28;20048;-74
2023/04/11 05:04:19;;;;;;;20.00;3.67;;;8.30;99.90;;;;;;5098715;28;20410;-74
2023/04/11 05:06:45;;;;;;;15.68;3.40;;;8.30;99.90;;;;;;5098975;28;20040;-74
2023/04/11 05:09:11;;;;;;;20.85;3.88;;;8.30;99.90;;;;;;5098557;28;20096;-74
2023/04/11 05:11:37;;;;;;;16.10;3.42;;;8.40;99.90;;;;;;5098856;28;20040;-74
2023/04/11 05:14:03;;;;;;;14.38;3.53;;;8.40;99.90;;;;;;5098880;28;20040;-74
2023/04/11 05:16:28;;;;;;;14.20;3.28;;;8.30;99.90;;;;;;5098453;28;20079;-74
2023/04/11 05:18:54;;;;;;;10.50;3.00;;;8.30;99.90;;;;;;5098350;28;20047;-74
2023/04/11 05:21:21;;;;;;;20.95;3.30;;;8.30;99.90;;;;;;5098413;28;20032;-74
2023/04/11 05:23:47;;;;;;;13.23;3.25;;;8.40;99.90;;;;;;5098641;28;20154;-74
2023/04/11 05:26:13;;;;;;;14.80;3.47;;;8.40;99.90;;;;;;5098604;28;20414;-74
2023/04/11 05:28:38;;;;;;;12.73;3.03;;;8.40;99.90;;;;;;5098206;28;20413;-74
2023/04/11 05:31:05;;;;;;;10.15;3.00;;;8.50;99.90;;;;;;5098171;28;20040;-74
2023/04/11 05:33:30;;;;;;;14.75;3.30;;;8.50;99.90;;;;;;5098165;28;20451;-74
2023/04/11 05:35:56;;;;;;;9.07;2.45;;;8.40;99.90;;;;;;5098206;28;20036;-74
2023/04/11 05:38:22;;;;;;;24.13;4.20;;;8.30;99.90;;;;;;5097975;28;20035;-74
2023/04/11 05:40:47;;;;;;;13.52;2.92;;;8.40;99.90;;;;;;5097106;28;20044;-74
2023/04/11 05:43:14;;;;;;;10.60;2.72;;;8.40;99.90;;;;;;5098243;28;20036;-74
2023/04/11 05:45:40;;;;;;;19.50;3.75;;;8.40;99.90;;;;;;5098199;28;20101;-74
2023/04/11 05:48:07;;;;;;;15.40;3.30;;;8.40;99.90;;;;;;5097446;28;20425;-74
2023/04/11 05:50:35;;;;;;;14.48;2.97;;;8.30;99.90;;;;;;5097824;28;20428;-73
2023/04/11 05:53:04;;;;;;;13.45;3.22;;;8.30;99.90;;;;;;5098040;28;20044;-73
2023/04/11 05:55:30;;;;;;;13.27;3.40;;;8.20;99.90;;;;;;5097678;28;20036;-73
2023/04/11 05:57:55;;;;;;;15.93;3.10;;;8.30;99.90;;;;;;5097944;28;20048;-74
2023/04/11 06:00:23;;;;;;;14.25;3.22;;;8.30;99.90;;;;;;5097551;28;20452;-74
2023/04/11 06:02:49;;;;;;;15.23;3.00;;;8.30;99.90;;;;;;5097854;28;20044;-74
2023/04/11 06:05:16;;;;;;;13.00;2.70;;;8.40;99.90;;;;;;5097806;28;20118;-74
2023/04/11 06:07:42;;;;;;;12.60;2.75;;;8.30;99.90;;;;;;5097821;28;20363;-74
2023/04/11 06:10:09;;;;;;;19.38;3.47;;;8.30;99.90;;;;;;5097800;28;20044;-74
2023/04/11 06:12:35;;;;;;;23.25;3.85;;;8.30;99.90;;;;;;5097420;28;20418;-74
2023/04/11 06:15:01;;;;;;;15.57;3.38;;;8.30;99.90;;;;;;5097709;28;20051;-74
2023/04/11 06:17:27;;;;;;;15.57;3.70;;;8.20;99.90;;;;;;5097654;28;20119;-74
2023/04/11 06:19:53;;;;;;;15.07;3.97;;;8.30;99.90;;;;;;5096786;28;20122;-74
2023/04/11 06:22:18;;;;;;;17.65;3.05;;;8.30;99.90;;;;;;5097283;28;20077;-74
2023/04/11 06:24:44;;;;;;;11.65;3.20;;;8.30;99.90;;;;;;5097136;28;20036;-74
2023/04/11 06:27:10;;;;;;;21.13;4.40;;;8.40;99.90;;;;;;5097491;28;20042;-74
2023/04/11 06:29:37;;;;;;;11.77;3.15;;;8.40;99.90;;;;;;5097391;28;20474;-74
2023/04/11 06:32:02;;;;;;;19.20;3.22;;;8.50;99.90;;;;;;5096555;28;20443;-74
2023/04/11 06:34:28;;;;;;;20.92;3.05;;;8.40;99.90;;;;;;5097005;28;20036;-74
2023/04/11 06:36:54;;;;;;;11.82;2.60;;;8.40;99.90;;;;;;5096914;28;20036;-74
2023/04/11 06:39:20;;;;;;;13.93;2.83;;;8.50;99.90;;;;;;5096730;28;20093;-74
2023/04/11 06:41:46;;;;;;;19.00;2.70;;;8.50;99.90;;;;;;5096194;28;20044;-74
2023/04/11 06:44:12;;;;;;;24.67;3.35;;;8.50;99.90;;;;;;5096369;28;20315;-74
2023/04/11 06:46:38;;;;;;;12.90;2.85;;;8.50;99.90;;;;;;5096442;28;20035;-73
2023/04/11 06:49:06;;;;;;;16.80;2.90;;;8.50;99.90;;;;;;5095711;28;20417;-73
2023/04/11 06:51:35;;;;;;;16.10;2.97;;;8.50;99.90;;;;;;5096332;28;20108;-73
2023/04/11 06:54:01;;;;;;;21.27;4.60;;;8.50;99.90;;;;;;5093784;28;20048;-74
2023/04/11 06:56:27;;;;;;;21.58;2.97;;;8.50;99.90;;;;;;5096188;28;20044;-74
2023/04/11 06:58:53;;;;;;;25.25;3.45;;;8.60;99.90;;;;;;5095876;28;20040;-74
2023/04/11 07:01:24;;;;;;;18.10;2.88;;;8.70;99.90;;;;;;5096522;28;20353;-73
2023/04/11 07:03:51;;;;;;;18.60;2.67;;;8.70;99.90;;;;;;5096749;28;20047;-73
2023/04/11 07:06:18;;;;;;;12.85;2.15;;;8.70;99.90;;;;;;5095969;28;20120;-74
2023/04/11 07:08:44;;;;;;;13.73;2.58;;;8.70;99.90;;;;;;5096684;28;20040;-73
2023/04/11 07:11:10;;;;;;;19.70;3.08;;;8.80;99.90;;;;;;5095921;28;20071;-73
2023/04/11 07:13:36;;;;;;;14.48;2.55;;;8.70;99.90;;;;;;5096586;28;20036;-73
2023/04/11 07:16:02;;;;;;;12.15;2.83;;;8.50;99.90;;;;;;5096803;28;20047;-73
2023/04/11 07:18:29;;;;;;;14.55;3.10;;;8.30;99.90;;;;;;5096350;28;20040;-74
2023/04/11 07:20:55;;;;;;;15.50;2.53;;;8.30;99.90;;;;;;5096686;28;20040;-73
2023/04/11 07:23:20;;;;;;;14.63;2.20;;;8.30;99.90;;;;;;5078636;28;20413;-73
2023/04/11 07:25:48;;;;;;;20.90;3.25;;;8.40;99.90;;;;;;5096640;28;20028;-74
2023/04/11 07:28:14;;;;;;;15.82;2.83;;;8.50;99.90;;;;;;5096738;28;20059;-73
2023/04/11 07:30:40;;;;;;;12.98;1.85;;;8.40;99.90;;;;;;5096455;28;20044;-73
2023/04/11 07:33:06;;;;;;;16.30;2.63;;;8.20;99.90;;;;;;5096685;28;20032;-73
2023/04/11 07:35:33;;;;;;;14.07;2.65;;;8.20;99.90;;;;;;5096582;28;20371;-74
2023/04/11 07:38:00;;;;;;;17.90;2.95;;;8.30;99.90;;;;;;5096313;28;20329;-73
2023/04/11 07:40:26;;;;;;;13.10;2.28;;;8.50;99.90;;;;;;5096539;28;20047;-73
2023/04/11 07:42:52;;;;;;;15.15;2.20;;;8.70;99.90;;;;;;5095587;28;20051;-73
2023/04/11 07:45:18;;;;;;;14.10;2.00;;;8.90;99.90;;;;;;5097745;28;20036;-70
2023/04/11 07:47:44;;;;;;;14.23;2.30;;;8.80;99.90;;;;;;5100483;28;20087;-70
2023/04/11 07:50:10;;;;;;;14.63;2.42;;;9.00;99.90;;;;;;5099998;28;20058;-70
2023/04/11 07:52:35;;;;;;;22.23;2.78;;;9.00;99.90;;;;;;5100102;28;20429;-69
2023/04/11 07:55:02;;;;;;;20.65;2.30;;;9.10;99.90;;;;;;5100337;28;20093;-69
2023/04/11 07:57:28;;;;;;;12.45;2.08;;;9.20;99.90;;;;;;5100056;28;20036;-69
2023/04/11 07:59:55;;;;;;;13.15;2.05;;;9.20;99.90;;;;;;5099692;28;20314;-70
2023/04/11 08:02:22;;;;;;;11.82;2.20;;;9.30;99.90;;;;;;5100201;28;20102;-69
2023/04/11 08:04:47;;;;;;;14.13;2.17;;;9.20;99.90;;;;;;5100128;28;20303;-69
2023/04/11 08:07:14;;;;;;;8.95;1.27;;;8.90;99.90;;;;;;5099967;28;20082;-70
2023/04/11 08:09:41;;;;;;;10.77;1.92;;;8.60;99.90;;;;;;5100060;28;20036;-69
2023/04/11 08:12:07;;;;;;;12.85;1.92;;;8.60;99.90;;;;;;5100030;28;20123;-70
2023/04/11 08:14:34;;;;;;;19.50;2.55;;;8.50;99.90;;;;;;5099949;28;20040;-71
2023/04/11 08:16:59;;;;;;;13.13;1.45;;;8.70;99.90;;;;;;5099637;28;20429;-70
2023/04/11 08:19:26;;;;;;;16.23;1.77;;;9.00;99.90;;;;;;5098488;28;20086;-71
2023/04/11 08:21:51;;;;;;;18.52;2.05;;;9.10;99.90;;;;;;5099762;28;20079;-71
2023/04/11 08:24:17;;;;;;;16.75;2.30;;;9.40;99.90;;;;;;5099783;28;20063;-71
2023/04/11 08:26:43;;;;;;;18.40;2.30;;;9.40;99.90;;;;;;5099713;28;20036;-71
2023/04/11 08:29:10;;;;;;;12.95;2.20;;;9.40;99.90;;;;;;5099725;28;20059;-71
2023/04/11 08:31:36;;;;;;;15.35;3.00;;;9.40;99.90;;;;;;5099366;28;20044;-71
2023/04/11 08:34:02;;;;;;;13.98;1.80;;;9.40;99.90;;;;;;5099618;28;20061;-70
2023/04/11 08:36:30;;;;;;;8.80;1.73;;;9.30;99.90;;;;;;5099507;28;20329;-70
2023/04/11 08:38:55;;;;;;;7.63;1.50;;;9.20;99.90;;;;;;5099621;28;20040;-70
2023/04/11 08:41:22;;;;;;;7.75;1.55;;;9.20;99.90;;;;;;5099055;28;20047;-70
2023/04/11 08:43:48;;;;;;;14.68;1.70;;;9.30;99.90;;;;;;5099527;28;20097;-72
2023/04/11 08:46:14;;;;;;;10.27;1.90;;;9.40;99.90;;;;;;5099054;28;20119;-70
2023/04/11 08:48:39;;;;;;;9.57;1.55;;;9.70;99.90;;;;;;5098865;28;20114;-70
2023/04/11 08:51:06;;;;;;;10.52;1.80;;;9.90;99.90;;;;;;5098017;28;20040;-70
2023/04/11 08:53:35;;;;;;;9.52;1.30;;;10.00;99.90;;;;;;5098180;28;20394;-70
2023/04/11 08:56:02;;;;;;;12.38;1.60;;;10.10;99.90;;;;;;5098285;28;20042;-70
2023/04/11 08:58:27;;;;;;;10.20;1.58;;;10.30;99.90;;;;;;5099096;28;20087;-70
2023/04/11 09:00:53;;;;;;;9.73;1.42;;;10.40;99.90;;;;;;5098640;28;20079;-70
2023/04/11 09:03:19;;;;;;;9.00;1.75;;;10.00;99.90;;;;;;5090172;28;20110;-70
2023/04/11 09:05:45;;;;;;;2.60;0.60;;;9.90;99.90;;;;;;5083964;28;20475;-70
2023/04/11 09:08:13;;;;;;;4.70;0.93;;;9.40;99.90;;;;;;5079574;28;20072;-70
2023/04/11 09:10:43;;;;;;;10.38;1.35;;;9.10;99.90;;;;;;5098679;28;20044;-70
2023/04/11 09:13:26;;;;;;;9.18;1.17;;;8.80;99.90;;;;;;5098749;28;20122;-71
2023/04/11 09:16:05;;;;;;;13.32;2.10;;;9.00;99.90;;;;;;5098328;28;20488;-70
2023/04/11 09:18:35;;;;;;;10.88;1.75;;;9.20;99.90;;;;;;5097431;28;20040;-70
2023/04/11 09:21:03;;;;;;;13.88;2.20;;;9.60;99.90;;;;;;5095487;28;20043;-70
2023/04/11 09:23:29;;;;;;;6.88;1.55;;;9.90;99.90;;;;;;5080454;28;20068;-71
2023/04/11 09:25:55;;;;;;;11.00;1.92;;;10.20;99.90;;;;;;5077889;28;20075;-70
2023/04/11 09:28:21;;;;;;;11.95;2.63;;;10.20;99.90;;;;;;5077248;28;20120;-70
2023/04/11 09:30:51;;;;;;;11.32;1.42;;;10.00;99.90;;;;;;5077957;28;20129;-70
2023/04/11 09:33:28;;;;;;;13.07;1.23;;;9.80;99.90;;;;;;5059977;28;20426;-70
2023/04/11 09:35:55;;;;;;;9.02;1.55;;;9.50;99.90;;;;;;5084792;28;20115;-70
2023/04/11 09:38:34;;;;;;;14.88;1.77;;;9.60;99.90;;;;;;5092613;28;20115;-70
2023/04/11 09:41:01;;;;;;;11.75;1.42;;;9.90;99.90;;;;;;5077807;28;20048;-70
2023/04/11 09:43:50;;;;;;;8.05;1.60;;;10.20;99.90;;;;;;5077459;28;20049;-70
2023/04/11 09:46:20;;;;;;;6.25;1.50;;;9.80;99.90;;;;;;5077817;28;20036;-70
2023/04/11 09:48:50;;;;;;;15.73;1.73;;;9.90;99.90;;;;;;5076590;28;20430;-70
2023/04/11 09:51:17;;;;;;;13.23;1.63;;;9.70;99.90;;;;;;5077349;28;20040;-70
2023/04/11 09:53:44;;;;;;;8.57;1.75;;;9.60;99.90;;;;;;5090870;28;20047;-72
2023/04/11 09:56:10;;;;;;;11.93;1.77;;;9.80;99.90;;;;;;5096796;28;20342;-70
2023/04/11 09:58:41;;;;;;;16.65;1.88;;;9.90;99.90;;;;;;5097345;28;20048;-70
2023/04/11 10:01:09;;;;;;;11.77;1.50;;;10.20;99.90;;;;;;5097463;28;20094;-70
2023/04/11 10:03:38;;;;;;;9.45;1.67;;;10.30;99.90;;;;;;5096831;28;20052;-69
2023/04/11 10:06:13;;;;;;;9.32;1.15;;;10.30;99.90;;;;;;5097506;28;20047;-72
2023/04/11 10:08:40;;;;;;;6.55;0.93;;;9.90;99.90;;;;;;5097222;28;20048;-76
2023/04/11 10:11:13;;;;;;;5.55;0.98;;;9.50;99.90;;;;;;5096865;28;20054;-72
2023/04/11 10:13:45;;;;;;;5.50;0.88;;;9.50;99.90;;;;;;5097707;28;20035;-69
2023/04/11 10:16:13;;;;;;;10.23;1.30;;;9.50;99.90;;;;;;5097263;28;20040;-70
2023/04/11 10:18:51;;;;;;;7.15;1.00;;;9.50;99.90;;;;;;5097047;28;20040;-68
2023/04/11 10:21:28;;;;;;;10.75;1.25;;;9.00;99.90;;;;;;5097478;28;20040;-68
2023/04/11 10:24:13;;;;;;;11.18;1.52;;;8.80;99.90;;;;;;5096357;28;20040;-69
2023/04/11 10:26:51;;;;;;;11.23;1.70;;;8.80;99.90;;;;;;5097133;28;20421;-68
2023/04/11 10:32:06;;;;;;;11.18;1.77;;;8.50;99.90;;;;;;5097334;28;20130;-68
2023/04/11 10:34:34;;;;;;;9.73;1.33;;;8.30;99.90;;;;;;5097289;28;20048;-69
2023/04/11 10:37:05;;;;;;;4.68;1.13;;;8.20;99.90;;;;;;5113083;28;20048;-70
2023/04/11 10:39:49;;;;;;;4.88;1.17;;;7.90;99.90;;;;;;5097119;28;20082;-71
2023/04/11 10:42:32;;;;;;;8.68;1.30;;;7.50;99.90;;;;;;5097202;28;20063;-69
2023/04/11 10:45:17;;;;;;;7.95;1.10;;;7.20;99.90;;;;;;5096869;28;20426;-69
2023/04/11 10:47:58;;;;;;;6.57;0.80;;;7.00;99.90;;;;;;5096804;28;20075;-67
2023/04/11 10:50:33;;;;;;;10.45;1.40;;;7.00;99.90;;;;;;5096680;28;20040;-67
2023/04/11 10:53:01;;;;;;;8.13;1.42;;;7.00;99.90;;;;;;5096020;28;20040;-69
2023/04/11 10:55:28;;;;;;;6.20;1.17;;;7.00;99.90;;;;;;5081576;28;20436;-69
2023/04/11 10:58:08;;;;;;;6.85;1.45;;;7.00;99.90;;;;;;5084647;28;20329;-69
2023/04/11 11:00:48;;;;;;;8.05;1.60;;;7.00;99.90;;;;;;5076573;28;20059;-70
2023/04/11 11:03:25;;;;;;;6.80;1.38;;;7.20;99.90;;;;;;5096859;28;20115;-69
2023/04/11 11:06:05;;;;;;;11.32;1.58;;;7.30;99.90;;;;;;5095596;28;20051;-69
2023/04/11 11:08:36;;;;;;;9.68;1.77;;;7.30;99.90;;;;;;5096828;28;20079;-73
2023/04/11 11:11:07;;;;;;;10.07;1.38;;;7.40;99.90;;;;;;5095244;28;20452;-69
2023/04/11 11:13:46;;;;;;;6.38;1.50;;;7.30;99.90;;;;;;5088879;28;20403;-70
2023/04/11 11:16:20;;;;;;;7.95;1.48;;;7.20;99.90;;;;;;5076461;28;20040;-69
2023/04/11 11:18:50;;;;;;;9.70;1.10;;;7.20;99.90;;;;;;5077428;28;20322;-67
2023/04/11 11:21:22;;;;;;;6.25;1.02;;;7.30;99.90;;;;;;5080505;28;20036;-67
2023/04/11 11:24:02;;;;;;;3.38;1.00;;;7.20;99.90;;;;;;5080252;28;20438;-67
2023/04/11 11:26:38;;;;;;;5.05;1.02;;;7.10;99.90;;;;;;5081067;28;20032;-67
2023/04/11 11:29:04;;;;;;;7.15;1.08;;;7.10;99.90;;;;;;5080373;28;20033;-67
2023/04/11 11:31:38;;;;;;;5.15;0.90;;;7.10;99.90;;;;;;5080308;28;20048;-67
2023/04/11 11:34:05;;;;;;;6.88;1.00;;;7.10;99.90;;;;;;5080048;28;20052;-67
2023/04/11 11:36:34;;;;;;;4.43;0.95;;;7.30;99.90;;;;;;5078680;28;20436;-69
2023/04/11 11:39:05;;;;;;;11.73;1.20;;;7.40;99.90;;;;;;5080343;28;20047;-70
2023/04/11 11:41:34;;;;;;;10.82;1.33;;;7.80;99.90;;;;;;5080044;28;20037;-69
2023/04/11 11:44:01;;;;;;;7.95;1.00;;;8.10;99.90;;;;;;5079948;28;20435;-67
2023/04/11 11:46:29;;;;;;;11.98;1.25;;;8.30;99.90;;;;;;5080251;28;20036;-67
2023/04/11 11:49:00;;;;;;;5.03;1.00;;;8.40;99.90;;;;;;5079814;28;20040;-67
2023/04/11 11:51:40;;;;;;;6.45;1.05;;;8.10;99.90;;;;;;5080147;28;20330;-67
2023/04/11 11:54:08;;;;;;;11.50;1.33;;;8.10;99.90;;;;;;5080132;28;20047;-67
2023/04/11 11:56:38;;;;;;;7.55;1.13;;;8.00;99.90;;;;;;5095860;28;20051;-67
2023/04/11 11:59:05;;;;;;;10.15;2.13;;;8.10;99.90;;;;;;5080023;28;20111;-67
2023/04/11 12:01:35;;;;;;;8.50;1.48;;;8.10;99.90;;;;;;5079460;28;20583;-67
2023/04/11 12:04:03;;;;;;;9.55;1.58;;;8.40;99.90;;;;;;5079952;28;20072;-67
2023/04/11 12:06:32;;;;;;;12.30;2.00;;;8.80;99.90;;;;;;5079808;28;20032;-67
2023/04/11 12:09:08;;;;;;;11.35;1.65;;;9.50;99.90;;;;;;5079845;28;20304;-67
2023/04/11 12:11:56;;;;;;;15.15;1.60;;;9.80;99.90;;;;;;5079817;28;20037;-67
2023/04/11 12:14:25;;;;;;;11.70;2.17;;;10.60;99.90;;;;;;5079436;28;20050;-67
2023/04/11 12:16:56;;;;;;;12.55;2.05;;;10.50;99.90;;;;;;5095143;28;20094;-67
2023/04/11 12:19:30;;;;;;;10.82;1.55;;;10.90;99.90;;;;;;5079279;28;20066;-67
2023/04/11 12:21:56;;;;;;;14.65;2.13;;;11.00;99.90;;;;;;5079230;28;20041;-67
2023/04/11 12:24:22;;;;;;;15.15;2.58;;;10.90;99.90;;;;;;5078236;28;20029;-67
2023/04/11 12:26:47;;;;;;;13.65;1.98;;;10.40;99.90;;;;;;5079158;28;20043;-68
2023/04/11 12:29:13;;;;;;;15.30;2.22;;;10.30;99.90;;;;;;5079436;28;20079;-66
2023/04/11 12:31:39;;;;;;;8.07;1.42;;;10.20;99.90;;;;;;5078401;28;20041;-67
2023/04/11 12:34:04;;;;;;;12.18;1.15;;;10.20;99.90;;;;;;5079415;28;20095;-70
2023/04/11 12:36:30;;;;;;;16.38;2.33;;;10.20;99.90;;;;;;5079101;28;20319;-68
2023/04/11 12:38:55;;;;;;;7.55;1.13;;;10.30;99.90;;;;;;5095077;28;20059;-66
2023/04/11 12:41:21;;;;;;;10.38;1.35;;;10.40;99.90;;;;;;5079110;28;20118;-67
2023/04/11 12:43:47;;;;;;;12.98;1.70;;;10.40;99.90;;;;;;5078857;28;20315;-67
2023/04/11 12:46:13;;;;;;;10.32;1.63;;;10.30;99.90;;;;;;5079166;28;20040;-67
2023/04/11 12:48:38;;;;;;;13.63;1.85;;;9.90;99.90;;;;;;5078796;28;20044;-67
2023/04/11 12:51:04;;;;;;;13.52;2.05;;;10.00;99.90;;;;;;5079036;28;20044;-67
2023/04/11 12:53:30;;;;;;;8.20;2.17;;;10.20;99.90;;;;;;5079006;28;20040;-67